Fortaleza, Brasil

03:58 AM BRT em 24 de Outubro de 2014 (GMT -0300)
Pinto Martins International | Change Station
CLOSE
Current Station
Aeroporto
Location: Fortaleza - Pinto Martins,
Altitude: 82 ft
Estações Meteorológicas Próximas

Elev 82 ft 3.78 °S, 38.53 °W | Updated -110 second ago

Mostly Cloudy
Muito Nublado
77 °F
Aparente 77 °F
N
15
Vento Variável Vento de ESE

Hoje
Máxima -- | Mínima -- °F
--% Possibilidade de Precip.
Ontem
Máxima -- | Mínima -- °F
Precip. -- pol
5:11 AM 5:24 PM
Lua nova, 0% visible
Pressão 29.86 pol
Visibilidade 6.2 milhas
Nuvens Muito Nublado 2000 ft
Muito Nublado 6000 ft
Ponto de Orvalho 68 °F
Humidade 74%
Chuva 0.00 pol
Altura de Neve Não disponível
UV 0 em vez de 12
Pólen Não disponível
Qualidade do Ar Não disponível
Flu Activity Não disponível
METAR SBFZ 240700Z 11013KT 9999 BKN020 BKN060 25/20 Q1011

More Conditions Fewer Conditions

Pressão 29.86 pol
Visibilidade 6.2 milhas
Nuvens Muito Nublado 2000 ft
Muito Nublado 6000 ft
Ponto de Orvalho 68 °F
Humidade 74%
Chuva 0.00 pol
Altura de Neve Não disponível
UV 0 em vez de 12
Pólen Não disponível
Qualidade do Ar Não disponível
Flu Activity Não disponível
METAR SBFZ 240700Z 11013KT 9999 BKN020 BKN060 25/20 Q1011

More Conditions Fewer Conditions

10-Day Weather Forecast

Almanac

Astronomia

Oct. 24, 2014 Nascer Pôr
Hora atual 05:11 BRT 17:24 BRT
Crepúsculo civil 04:50 BRT 17:46 BRT
Crepúsculo náutico 04:25 BRT 18:10 BRT
Crepúsculo astronómico 04:01 BRT 18:35 BRT
Lua 05:37 BRT 18:08 BRT
Comprimento da luz visível 12h 55m
Duração do Dia
12h 13m
Tomorrow will be 0m 12s longer.
Lua nova, 0% of the Moon is Illuminated
Hoje
Lua nova
Out 30
Quarto crescente
Nov 6
Lua cheia
Nov 14
Quarto minguante
Nov 22
Nova

Extremos de ontem

Altitude na localidade Altura mais baixa na localidade

Community

WunderPhotos

Upload Photos

1,764,513 fotografias inseridas!

WunderBlogs® & News

Nearby

Actividade Sísmisca

Cidade Distância Mag. Hora & Data
Não há notícias de atividade sísmica recente perto de si.
Mínima magnitude apresentada é 2.5.

Temperaturas das Águas Costeiras

Local Temperatura
Não há estações a reportar dados

Estações Meteorológicas Próximas